createdAt,value
2023-02-17T00:00:35.861Z,73.04
2023-02-17T00:01:37.526Z,73.76
2023-02-17T00:02:40.087Z,73.17
2023-02-17T00:03:42.310Z,73.96
2023-02-17T00:04:43.900Z,74.38
2023-02-17T00:05:45.911Z,74.92
2023-02-17T00:06:47.452Z,74.92
2023-02-17T00:07:48.987Z,75.19
2023-02-17T00:08:50.582Z,75.29
2023-02-17T00:09:52.130Z,75.52
2023-02-17T00:10:58.529Z,75.36
2023-02-17T00:12:00.111Z,75.44
2023-02-17T00:13:01.691Z,75.61
2023-02-17T00:14:03.347Z,76.34
2023-02-17T00:15:05.327Z,76.68
2023-02-17T00:16:17.792Z,76.54
2023-02-17T00:17:19.361Z,76.92
2023-02-17T00:18:21.066Z,76.90
2023-02-17T00:19:25.909Z,76.78
2023-02-17T00:20:29.481Z,76.93
2023-02-17T00:21:32.334Z,76.99
2023-02-17T00:22:33.890Z,77.77
2023-02-17T00:23:35.397Z,78.20
2023-02-17T00:24:41.103Z,78.69
2023-02-17T00:25:42.716Z,80.13
2023-02-17T00:26:44.458Z,81.27
2023-02-17T00:27:46.059Z,81.57
2023-02-17T00:28:48.789Z,81.95
2023-02-17T00:29:50.326Z,81.71
2023-02-17T00:30:51.975Z,81.84
2023-02-17T00:31:54.874Z,81.87
2023-02-17T00:32:56.603Z,82.39
2023-02-17T00:33:58.141Z,83.01
2023-02-17T00:34:59.739Z,82.92
2023-02-17T00:36:11.498Z,82.71
2023-02-17T00:37:13.101Z,82.80
2023-02-17T00:38:14.631Z,83.37
2023-02-17T00:39:17.535Z,84.42
2023-02-17T00:40:19.320Z,83.90
2023-02-17T00:41:21.484Z,83.72
2023-02-17T00:42:23.049Z,82.83
2023-02-17T00:43:24.841Z,82.74
2023-02-17T00:44:26.415Z,82.22
2023-02-17T00:45:28.053Z,81.78
2023-02-17T00:46:29.656Z,80.94
2023-02-17T00:47:31.310Z,80.31
2023-02-17T00:48:32.999Z,79.59
2023-02-17T00:49:34.548Z,78.68
2023-02-17T00:50:36.115Z,78.22
2023-02-17T00:51:37.652Z,78.59
2023-02-17T00:52:39.179Z,77.14
2023-02-17T00:53:41.501Z,76.56
2023-02-17T00:54:43.078Z,75.88
2023-02-17T00:55:44.663Z,75.68
2023-02-17T00:56:46.472Z,75.47
2023-02-17T00:57:48.083Z,74.99
2023-02-17T00:58:50.789Z,74.86
2023-02-17T00:59:52.353Z,74.69
2023-02-17T01:00:56.090Z,74.83
2023-02-17T01:01:57.777Z,74.04
2023-02-17T01:02:59.376Z,74.39
2023-02-17T01:04:01.360Z,74.35
2023-02-17T01:05:03.078Z,74.48
2023-02-17T01:06:11.647Z,74.15
2023-02-17T01:07:13.208Z,73.97
2023-02-17T01:08:16.740Z,74.24
2023-02-17T01:09:18.369Z,74.23
2023-02-17T01:10:20.019Z,74.59
2023-02-17T01:11:24.255Z,74.27
2023-02-17T01:12:25.769Z,73.92
2023-02-17T01:13:27.342Z,73.88
2023-02-17T01:14:28.880Z,73.62
2023-02-17T01:15:30.491Z,74.12
2023-02-17T01:16:35.361Z,73.98
2023-02-17T01:17:36.904Z,74.23
2023-02-17T01:18:38.411Z,74.56
2023-02-17T01:19:40.171Z,74.13
2023-02-17T01:20:42.532Z,73.92
2023-02-17T01:21:44.339Z,74.41
2023-02-17T01:22:45.895Z,75.02
2023-02-17T01:23:52.150Z,75.74
2023-02-17T01:24:53.717Z,76.01
2023-02-17T01:25:55.262Z,75.69
2023-02-17T01:26:56.858Z,75.79
2023-02-17T01:27:58.407Z,76.72
2023-02-17T01:29:00.577Z,77.08
2023-02-17T01:30:02.276Z,76.88
2023-02-17T01:31:11.314Z,76.65
2023-02-17T01:32:12.906Z,76.94
2023-02-17T01:33:14.676Z,76.83
2023-02-17T01:34:16.221Z,76.56
2023-02-17T01:35:17.914Z,76.47
2023-02-17T01:36:20.540Z,76.28
2023-02-17T01:37:22.122Z,75.76
2023-02-17T01:38:23.648Z,75.56
2023-02-17T01:39:25.162Z,75.82
2023-02-17T01:40:26.738Z,75.89
2023-02-17T01:41:29.022Z,75.97
2023-02-17T01:42:30.691Z,75.53
2023-02-17T01:43:32.959Z,75.32
2023-02-17T01:44:34.528Z,74.82
2023-02-17T01:45:41.635Z,74.49
2023-02-17T01:46:46.509Z,74.43
2023-02-17T01:47:58.976Z,74.12
2023-02-17T01:49:01.658Z,73.60
2023-02-17T01:50:03.342Z,73.88
2023-02-17T01:51:14.585Z,73.61
2023-02-17T01:52:25.380Z,73.52
2023-02-17T01:53:33.519Z,73.67
2023-02-17T01:54:49.794Z,73.24
2023-02-17T01:55:52.722Z,72.90
2023-02-17T01:56:57.684Z,72.81
2023-02-17T01:58:02.132Z,72.80
2023-02-17T01:59:10.439Z,73.11
2023-02-17T02:00:14.219Z,72.37
2023-02-17T02:01:17.109Z,72.56
2023-02-17T02:02:18.937Z,72.21
2023-02-17T02:03:21.108Z,72.30
2023-02-17T02:04:26.160Z,72.67
2023-02-17T02:05:28.384Z,73.29
2023-02-17T02:06:33.971Z,73.62
2023-02-17T02:07:39.055Z,73.56
2023-02-17T02:09:12.706Z,74.16
2023-02-17T02:10:16.164Z,75.04
2023-02-17T02:11:17.747Z,75.87
2023-02-17T02:12:28.959Z,76.91
2023-02-17T02:13:30.537Z,78.14
2023-02-17T02:14:32.213Z,78.46
2023-02-17T02:16:14.596Z,78.35
2023-02-17T02:17:40.236Z,78.57
2023-02-17T02:19:15.356Z,79.75
2023-02-17T02:20:33.251Z,81.35
2023-02-17T02:22:02.009Z,81.22
2023-02-17T02:23:18.740Z,81.24
2023-02-17T02:24:38.890Z,80.55
2023-02-17T02:26:14.946Z,80.61
2023-02-17T02:27:40.150Z,80.67
2023-02-17T02:29:12.794Z,79.90
2023-02-17T02:30:40.408Z,79.65
2023-02-17T02:32:09.042Z,79.44
2023-02-17T02:33:34.370Z,79.64
2023-02-17T02:34:46.107Z,79.36
2023-02-17T02:35:59.978Z,78.93
2023-02-17T02:37:11.041Z,78.94
2023-02-17T02:38:40.731Z,78.37
2023-02-17T02:39:47.574Z,78.01
2023-02-17T02:40:55.482Z,78.20
2023-02-17T02:42:02.100Z,78.28
2023-02-17T02:43:05.190Z,78.58
2023-02-17T02:44:08.955Z,78.38
2023-02-17T02:45:11.773Z,78.00
2023-02-17T02:46:13.331Z,78.50
2023-02-17T02:47:48.828Z,78.71
2023-02-17T02:48:51.241Z,79.92
2023-02-17T02:49:53.210Z,80.52
2023-02-17T02:50:57.371Z,82.47
2023-02-17T02:52:10.462Z,84.02
2023-02-17T02:53:45.119Z,85.39
2023-02-17T02:55:06.894Z,86.69
2023-02-17T02:56:32.903Z,87.02
2023-02-17T02:57:55.291Z,87.91
2023-02-17T02:58:56.753Z,88.02
2023-02-17T03:00:12.046Z,87.89
2023-02-17T03:01:20.260Z,87.37
2023-02-17T03:02:44.573Z,86.30
2023-02-17T03:04:10.742Z,85.59
2023-02-17T03:05:32.499Z,85.74
2023-02-17T03:06:44.430Z,84.72
2023-02-17T03:07:59.025Z,85.21
2023-02-17T03:09:14.632Z,85.58
2023-02-17T03:10:16.550Z,87.10
2023-02-17T03:11:32.404Z,88.20
2023-02-17T03:12:37.113Z,89.01
2023-02-17T03:13:41.026Z,89.93
2023-02-17T03:14:43.593Z,90.59
2023-02-17T03:15:45.513Z,90.82
2023-02-17T03:16:48.668Z,90.89
2023-02-17T03:17:50.271Z,90.90
2023-02-17T03:18:51.832Z,90.27
2023-02-17T03:19:53.419Z,90.12
2023-02-17T03:20:57.471Z,89.98
2023-02-17T03:22:21.256Z,89.63
2023-02-17T03:23:22.901Z,89.26
2023-02-17T03:24:24.939Z,89.49
2023-02-17T03:25:26.608Z,89.26
2023-02-17T03:26:28.147Z,89.85
2023-02-17T03:27:29.854Z,89.46
2023-02-17T03:28:31.517Z,90.33
2023-02-17T03:29:33.080Z,90.15
2023-02-17T03:30:35.255Z,90.78
2023-02-17T03:31:37.178Z,91.88
2023-02-17T03:32:38.752Z,92.17
2023-02-17T03:33:40.313Z,92.73
2023-02-17T03:34:41.856Z,93.08
2023-02-17T03:35:43.422Z,93.25
2023-02-17T03:36:44.924Z,93.59
2023-02-17T03:37:46.532Z,93.61
2023-02-17T03:38:48.169Z,93.79
2023-02-17T03:39:49.744Z,93.79
2023-02-17T03:40:53.178Z,93.73
2023-02-17T03:41:54.761Z,93.07
2023-02-17T03:42:57.763Z,92.85
2023-02-17T03:43:59.314Z,93.50
2023-02-17T03:45:00.838Z,93.25
2023-02-17T03:46:02.575Z,93.51
2023-02-17T03:47:04.266Z,93.31
2023-02-17T03:48:06.001Z,93.09
2023-02-17T03:49:07.600Z,92.97
2023-02-17T03:50:09.460Z,93.10
2023-02-17T03:51:13.515Z,91.84
2023-02-17T03:52:15.130Z,92.02
2023-02-17T03:53:16.715Z,90.81
2023-02-17T03:54:18.241Z,90.58
2023-02-17T03:55:19.835Z,90.08
2023-02-17T03:56:21.387Z,89.77
2023-02-17T03:57:22.948Z,88.99
2023-02-17T03:58:24.478Z,88.56
2023-02-17T03:59:26.270Z,88.12
2023-02-17T04:00:27.894Z,88.20
2023-02-17T04:01:29.853Z,88.08
2023-02-17T04:02:31.397Z,87.60
2023-02-17T04:03:33.656Z,87.74
2023-02-17T04:04:36.334Z,87.13
2023-02-17T04:05:37.953Z,86.70
2023-02-17T04:06:39.546Z,85.88
2023-02-17T04:07:41.213Z,85.94
2023-02-17T04:08:42.827Z,85.22
2023-02-17T04:09:44.547Z,85.50
2023-02-17T04:10:46.174Z,85.09
2023-02-17T04:11:47.707Z,85.00
2023-02-17T04:12:49.233Z,85.27
2023-02-17T04:13:50.856Z,84.68
2023-02-17T04:14:52.402Z,84.53
2023-02-17T04:15:54.399Z,85.44
2023-02-17T04:16:55.992Z,85.74
2023-02-17T04:17:57.655Z,86.71
2023-02-17T04:18:59.219Z,87.08
2023-02-17T04:20:00.768Z,87.83
2023-02-17T04:21:03.062Z,87.83
2023-02-17T04:22:08.782Z,88.27
2023-02-17T04:23:11.535Z,87.20
2023-02-17T04:24:13.189Z,86.94
2023-02-17T04:25:14.762Z,85.29
2023-02-17T04:26:16.320Z,84.44
2023-02-17T04:27:17.869Z,83.65
2023-02-17T04:28:19.465Z,83.26
2023-02-17T04:29:21.022Z,82.69
2023-02-17T04:30:22.624Z,82.63
2023-02-17T04:31:25.944Z,82.16
2023-02-17T04:32:27.598Z,81.63
2023-02-17T04:33:29.755Z,81.29
2023-02-17T04:34:31.359Z,80.97
2023-02-17T04:35:32.916Z,80.83
2023-02-17T04:36:34.483Z,80.73
2023-02-17T04:37:36.116Z,81.13
2023-02-17T04:38:38.430Z,80.24
2023-02-17T04:39:39.949Z,79.93
2023-02-17T04:40:42.511Z,79.94
2023-02-17T04:41:44.117Z,79.96
2023-02-17T04:42:46.498Z,79.83
2023-02-17T04:43:48.091Z,79.96
2023-02-17T04:44:49.850Z,79.15
2023-02-17T04:45:52.171Z,79.66
2023-02-17T04:46:53.706Z,79.60
2023-02-17T04:47:55.248Z,81.47
2023-02-17T04:48:56.786Z,83.19
2023-02-17T04:49:58.536Z,82.65
2023-02-17T04:51:00.104Z,82.43
2023-02-17T04:52:01.746Z,82.02
2023-02-17T04:53:03.359Z,80.79
2023-02-17T04:54:04.913Z,79.95
2023-02-17T04:55:07.250Z,79.74
2023-02-17T04:56:08.884Z,79.91
2023-02-17T04:57:10.482Z,79.75
2023-02-17T04:58:12.028Z,80.29
2023-02-17T04:59:13.582Z,79.31
2023-02-17T05:00:15.382Z,79.82
2023-02-17T05:01:16.964Z,81.23
2023-02-17T05:02:18.803Z,81.14
2023-02-17T05:03:20.726Z,81.85
2023-02-17T05:04:22.309Z,81.69
2023-02-17T05:05:24.038Z,80.71
2023-02-17T05:06:25.592Z,81.65
2023-02-17T05:07:27.248Z,81.79
2023-02-17T05:08:28.790Z,81.45
2023-02-17T05:09:30.336Z,81.53
2023-02-17T05:10:32.086Z,81.13
2023-02-17T05:11:33.749Z,81.45
2023-02-17T05:12:35.554Z,81.86
2023-02-17T05:13:37.123Z,82.04
2023-02-17T05:14:39.535Z,82.17
2023-02-17T05:15:44.107Z,82.93
2023-02-17T05:16:45.771Z,83.98
2023-02-17T05:17:47.351Z,83.69
2023-02-17T05:18:48.931Z,83.59
2023-02-17T05:19:50.482Z,85.52
2023-02-17T05:20:52.220Z,85.92
2023-02-17T05:21:53.803Z,85.40
2023-02-17T05:22:55.341Z,84.72
2023-02-17T05:23:56.920Z,84.28
2023-02-17T05:24:58.696Z,85.48
2023-02-17T05:26:00.269Z,85.02
2023-02-17T05:27:01.800Z,84.72
2023-02-17T05:28:03.473Z,83.89
2023-02-17T05:29:04.987Z,83.32
2023-02-17T05:30:07.217Z,82.68
2023-02-17T05:31:08.919Z,82.74
2023-02-17T05:32:10.646Z,82.61
2023-02-17T05:33:12.300Z,82.07
2023-02-17T05:34:13.888Z,82.65
2023-02-17T05:35:15.574Z,81.94
2023-02-17T05:36:17.286Z,82.94
2023-02-17T05:37:19.540Z,83.58
2023-02-17T05:38:21.489Z,85.68
2023-02-17T05:39:23.431Z,84.97
2023-02-17T05:40:25.006Z,85.18
2023-02-17T05:41:26.519Z,84.03
2023-02-17T05:42:28.993Z,84.63
2023-02-17T05:43:30.988Z,84.25
2023-02-17T05:44:36.233Z,83.75
2023-02-17T05:45:37.916Z,83.71
2023-02-17T05:46:39.764Z,83.31
2023-02-17T05:47:41.562Z,82.78
2023-02-17T05:48:44.547Z,83.24
2023-02-17T05:49:46.652Z,83.04
2023-02-17T05:50:52.869Z,83.13
2023-02-17T05:51:58.886Z,83.38
2023-02-17T05:53:00.617Z,82.86
2023-02-17T05:54:02.575Z,82.71
2023-02-17T05:55:05.415Z,82.95
2023-02-17T05:56:13.659Z,82.14
2023-02-17T05:57:16.016Z,82.75
2023-02-17T05:58:24.075Z,82.55
2023-02-17T05:59:26.203Z,83.08
2023-02-17T06:00:31.918Z,82.17
2023-02-17T06:01:41.788Z,81.89
2023-02-17T06:03:00.598Z,82.16
2023-02-17T06:04:08.236Z,83.13
2023-02-17T06:05:15.467Z,83.63
2023-02-17T06:06:17.939Z,83.10
2023-02-17T06:07:20.413Z,83.06
2023-02-17T06:08:26.490Z,82.77
2023-02-17T06:09:34.110Z,82.22
2023-02-17T06:10:39.287Z,81.90
2023-02-17T06:11:49.737Z,81.17
2023-02-17T06:12:52.207Z,81.06
2023-02-17T06:13:54.464Z,80.35
2023-02-17T06:14:56.975Z,80.37
2023-02-17T06:16:02.439Z,79.83
2023-02-17T06:17:07.251Z,79.98
2023-02-17T06:18:12.074Z,80.26
2023-02-17T06:19:14.317Z,79.71
2023-02-17T06:20:16.609Z,79.74
2023-02-17T06:21:18.363Z,79.38
2023-02-17T06:22:20.380Z,79.48
2023-02-17T06:23:22.197Z,79.64
2023-02-17T06:24:27.079Z,78.97
2023-02-17T06:25:32.400Z,78.72
2023-02-17T06:26:34.484Z,78.71
2023-02-17T06:27:38.610Z,78.30
2023-02-17T06:28:41.537Z,78.50
2023-02-17T06:29:51.889Z,78.74
2023-02-17T06:30:59.756Z,78.70
2023-02-17T06:32:11.137Z,78.73
2023-02-17T06:33:13.844Z,78.76
2023-02-17T06:34:18.774Z,78.85
2023-02-17T06:35:23.799Z,79.00
2023-02-17T06:36:26.174Z,79.24
2023-02-17T06:37:28.736Z,78.87
2023-02-17T06:38:37.166Z,79.37
2023-02-17T06:39:45.435Z,79.01
2023-02-17T06:40:47.425Z,79.02
2023-02-17T06:41:49.293Z,80.24
2023-02-17T06:42:51.026Z,79.80
2023-02-17T06:43:58.664Z,80.01
2023-02-17T06:45:08.959Z,79.66
2023-02-17T06:46:11.519Z,79.27
2023-02-17T06:47:13.152Z,78.82
2023-02-17T06:48:15.462Z,78.52
2023-02-17T06:49:20.814Z,78.62
2023-02-17T06:50:23.132Z,78.66
2023-02-17T06:51:25.508Z,78.52
2023-02-17T06:52:28.675Z,78.58
2023-02-17T06:53:30.729Z,78.12
2023-02-17T06:54:35.636Z,77.39
2023-02-17T06:55:39.530Z,77.06
2023-02-17T06:56:41.623Z,77.27
2023-02-17T06:57:43.977Z,76.92
2023-02-17T06:58:57.089Z,75.14
2023-02-17T07:00:02.929Z,75.07
2023-02-17T07:01:05.900Z,75.13
2023-02-17T07:02:13.578Z,75.90
2023-02-17T07:03:16.554Z,75.41
2023-02-17T07:04:18.809Z,76.28
2023-02-17T07:05:20.651Z,75.73
2023-02-17T07:06:24.880Z,75.96
2023-02-17T07:07:27.194Z,75.56
2023-02-17T07:08:32.444Z,76.13
2023-02-17T07:09:35.702Z,76.80
2023-02-17T07:10:38.203Z,76.16
2023-02-17T07:11:42.072Z,77.95
2023-02-17T07:12:44.134Z,77.82
2023-02-17T07:13:49.930Z,78.05
2023-02-17T07:14:53.028Z,76.12
2023-02-17T07:15:56.352Z,74.59
2023-02-17T07:16:58.174Z,74.86
2023-02-17T07:18:01.806Z,74.90
2023-02-17T07:19:04.258Z,75.08
2023-02-17T07:20:10.230Z,74.04
2023-02-17T07:21:12.667Z,74.55
2023-02-17T07:22:17.428Z,74.00
2023-02-17T07:23:25.525Z,74.57
2023-02-17T07:24:27.574Z,74.90
2023-02-17T07:25:29.749Z,74.76
2023-02-17T07:26:31.779Z,73.63
2023-02-17T07:27:35.876Z,74.20
2023-02-17T07:28:39.494Z,74.37
2023-02-17T07:29:44.487Z,73.47
2023-02-17T07:30:46.848Z,74.19
2023-02-17T07:31:52.084Z,74.18
2023-02-17T07:32:56.809Z,74.29
2023-02-17T07:33:58.528Z,74.33
2023-02-17T07:35:00.203Z,74.33
2023-02-17T07:36:09.751Z,75.40
2023-02-17T07:37:11.320Z,75.29
2023-02-17T07:38:13.083Z,75.50
2023-02-17T07:39:14.813Z,75.71
2023-02-17T07:40:16.394Z,76.48
2023-02-17T07:41:20.831Z,77.07
2023-02-17T07:42:22.544Z,78.20
2023-02-17T07:43:24.049Z,78.59
2023-02-17T07:44:25.584Z,78.25
2023-02-17T07:45:27.322Z,79.56
2023-02-17T07:46:28.895Z,79.04
2023-02-17T07:47:32.584Z,78.85
2023-02-17T07:48:34.533Z,78.18
2023-02-17T07:49:36.157Z,78.71
2023-02-17T07:50:37.785Z,77.82
2023-02-17T07:51:39.330Z,76.81
2023-02-17T07:52:40.867Z,76.39
2023-02-17T07:53:42.477Z,76.76
2023-02-17T07:54:44.258Z,76.64
2023-02-17T07:55:45.809Z,75.97
2023-02-17T07:56:47.443Z,75.56
2023-02-17T07:57:48.989Z,74.60
2023-02-17T07:58:50.588Z,74.25
2023-02-17T07:59:52.302Z,73.58
2023-02-17T08:00:53.826Z,73.11
2023-02-17T08:01:55.396Z,72.13
2023-02-17T08:02:56.959Z,72.50
2023-02-17T08:03:58.659Z,72.79
2023-02-17T08:05:00.196Z,74.16
2023-02-17T08:06:02.444Z,73.19
2023-02-17T08:07:04.002Z,72.11
2023-02-17T08:08:24.128Z,73.26
2023-02-17T08:09:44.028Z,72.93
2023-02-17T08:11:04.076Z,73.44
2023-02-17T08:12:24.459Z,74.31
2023-02-17T08:13:28.047Z,73.94
2023-02-17T08:14:30.682Z,73.17
2023-02-17T08:15:33.913Z,73.72
2023-02-17T08:16:35.594Z,73.56
2023-02-17T08:17:37.674Z,72.44
2023-02-17T08:18:39.233Z,72.32
2023-02-17T08:19:48.411Z,72.03
2023-02-17T08:20:50.500Z,71.09
2023-02-17T08:21:53.414Z,70.26
2023-02-17T08:22:54.960Z,69.49
2023-02-17T08:23:56.582Z,70.56
2023-02-17T08:24:58.162Z,71.45
2023-02-17T08:25:59.743Z,71.34
2023-02-17T08:27:01.352Z,72.66
2023-02-17T08:28:05.804Z,73.45
2023-02-17T08:29:07.647Z,74.81
2023-02-17T08:30:09.843Z,74.47
2023-02-17T08:31:18.093Z,75.05
2023-02-17T08:32:19.848Z,76.74
2023-02-17T08:33:21.480Z,76.05
2023-02-17T08:34:23.040Z,76.02
2023-02-17T08:35:25.854Z,75.67
2023-02-17T08:36:28.926Z,75.83
2023-02-17T08:37:31.878Z,75.87
2023-02-17T08:38:34.448Z,75.15
2023-02-17T08:39:37.107Z,75.73
2023-02-17T08:40:38.979Z,74.24
2023-02-17T08:41:43.935Z,72.65
2023-02-17T08:42:45.524Z,73.57
2023-02-17T08:43:47.629Z,73.84
2023-02-17T08:44:49.182Z,72.96
2023-02-17T08:45:50.833Z,72.24
2023-02-17T08:46:52.917Z,73.29
2023-02-17T08:47:54.614Z,74.65
2023-02-17T08:48:57.041Z,74.70
2023-02-17T08:49:58.577Z,75.54
2023-02-17T08:51:00.158Z,71.39
2023-02-17T08:52:02.474Z,71.69
2023-02-17T08:53:04.172Z,71.97
2023-02-17T08:54:07.101Z,72.19
2023-02-17T08:55:08.674Z,73.77
2023-02-17T08:56:10.296Z,72.74
2023-02-17T08:57:12.049Z,71.07
2023-02-17T08:58:13.709Z,71.08
2023-02-17T08:59:15.486Z,71.90
2023-02-17T09:00:17.914Z,71.26
2023-02-17T09:01:20.383Z,71.75
2023-02-17T09:02:22.027Z,69.40
2023-02-17T09:03:23.748Z,69.21
2023-02-17T09:04:25.655Z,70.18
2023-02-17T09:05:27.335Z,69.37
2023-02-17T09:06:33.621Z,69.24
2023-02-17T09:07:35.185Z,69.38
2023-02-17T09:08:39.177Z,69.23
2023-02-17T09:09:41.373Z,69.82
2023-02-17T09:10:43.095Z,69.91
2023-02-17T09:11:45.155Z,70.01
2023-02-17T09:12:46.740Z,68.79
2023-02-17T09:13:48.339Z,69.46
2023-02-17T09:14:49.928Z,68.99
2023-02-17T09:15:54.006Z,69.46
2023-02-17T09:16:56.824Z,69.27
2023-02-17T09:17:58.615Z,68.34
2023-02-17T09:19:00.332Z,68.63
2023-02-17T09:20:01.917Z,65.98
2023-02-17T09:21:12.100Z,67.91
2023-02-17T09:22:30.562Z,68.74
2023-02-17T09:23:33.027Z,68.08
2023-02-17T09:24:38.737Z,67.72
2023-02-17T09:25:40.386Z,68.63
2023-02-17T09:26:42.036Z,69.07
2023-02-17T09:27:43.609Z,69.08
2023-02-17T09:28:45.955Z,69.41
2023-02-17T09:29:47.489Z,70.06
2023-02-17T09:30:49.241Z,70.71
2023-02-17T09:31:51.034Z,69.50
2023-02-17T09:32:52.754Z,68.64
2023-02-17T09:33:55.273Z,67.72
2023-02-17T09:34:58.767Z,67.32
2023-02-17T09:36:00.931Z,68.66
2023-02-17T09:37:02.594Z,67.52
2023-02-17T09:38:04.237Z,66.88
2023-02-17T09:39:06.020Z,67.65
2023-02-17T09:40:09.076Z,66.74
2023-02-17T09:41:18.572Z,66.07
2023-02-17T09:42:23.109Z,64.34
2023-02-17T09:43:31.200Z,65.88
2023-02-17T09:44:41.063Z,66.17
2023-02-17T09:45:47.708Z,65.72
2023-02-17T09:47:01.810Z,65.93
2023-02-17T09:48:08.695Z,65.13
2023-02-17T09:49:20.981Z,64.05
2023-02-17T09:50:29.829Z,65.10
2023-02-17T09:52:04.945Z,64.73
2023-02-17T09:53:09.305Z,62.56
2023-02-17T09:54:18.238Z,63.06
2023-02-17T09:55:25.082Z,63.60
2023-02-17T09:56:34.035Z,64.15
2023-02-17T09:57:59.681Z,63.00
2023-02-17T09:59:08.359Z,63.23
2023-02-17T10:00:16.072Z,63.59
2023-02-17T10:01:24.092Z,62.61
2023-02-17T10:02:36.610Z,62.53
2023-02-17T10:03:54.908Z,62.00
2023-02-17T10:05:03.142Z,62.07
2023-02-17T10:06:18.605Z,62.44
2023-02-17T10:07:39.964Z,62.08
2023-02-17T10:09:05.494Z,61.31
2023-02-17T10:10:46.945Z,59.12
2023-02-17T10:11:59.615Z,59.75
2023-02-17T10:13:03.215Z,60.38
2023-02-17T10:14:15.013Z,60.37
2023-02-17T10:15:22.195Z,59.30
2023-02-17T10:16:31.068Z,59.45
2023-02-17T10:18:10.809Z,58.38
2023-02-17T10:19:19.095Z,59.03
2023-02-17T10:20:28.766Z,58.67
2023-02-17T10:21:40.688Z,58.76
2023-02-17T10:23:17.550Z,58.49
2023-02-17T10:24:19.131Z,57.73
2023-02-17T10:25:34.248Z,59.89
2023-02-17T10:27:08.296Z,59.05
2023-02-17T10:28:17.482Z,58.78
2023-02-17T10:29:37.162Z,57.26
2023-02-17T10:30:48.662Z,57.15
2023-02-17T10:32:20.141Z,55.45
2023-02-17T10:33:29.370Z,56.34
2023-02-17T10:34:51.151Z,57.22
2023-02-17T10:36:12.157Z,57.35
2023-02-17T10:37:54.887Z,56.79
2023-02-17T10:39:03.617Z,55.27
2023-02-17T10:40:14.691Z,55.69
2023-02-17T10:41:22.695Z,55.84
2023-02-17T10:42:30.714Z,55.56
2023-02-17T10:43:33.621Z,54.46
2023-02-17T10:44:37.798Z,54.50
2023-02-17T10:45:49.555Z,54.40
2023-02-17T10:46:53.925Z,55.18
2023-02-17T10:48:09.325Z,53.56
2023-02-17T10:49:39.590Z,54.78
2023-02-17T10:50:46.601Z,54.56
2023-02-17T10:51:48.131Z,54.65
2023-02-17T10:52:50.862Z,55.25
2023-02-17T10:54:03.297Z,56.20
2023-02-17T10:55:36.834Z,53.77
2023-02-17T10:56:49.320Z,54.62
2023-02-17T10:57:58.042Z,54.02
2023-02-17T10:59:13.222Z,51.58
2023-02-17T11:00:19.529Z,52.13
2023-02-17T11:01:23.304Z,52.00
2023-02-17T11:02:41.871Z,53.15
2023-02-17T11:03:43.866Z,53.89
2023-02-17T11:04:50.975Z,51.99
2023-02-17T11:06:01.981Z,52.02
2023-02-17T11:07:10.361Z,51.18
2023-02-17T11:08:33.657Z,49.92
2023-02-17T11:09:36.302Z,49.89
2023-02-17T11:10:40.937Z,51.32
2023-02-17T11:11:54.361Z,49.24
2023-02-17T11:12:58.644Z,50.07
2023-02-17T11:14:06.341Z,49.46
2023-02-17T11:15:20.508Z,49.54
2023-02-17T11:17:12.622Z,48.29
2023-02-17T11:18:25.029Z,50.53
2023-02-17T11:19:31.000Z,51.63
2023-02-17T11:20:34.770Z,51.15
2023-02-17T11:21:43.449Z,51.44
2023-02-17T11:22:47.943Z,50.58
2023-02-17T11:23:59.704Z,49.92
2023-02-17T11:25:26.775Z,50.78
2023-02-17T11:26:32.287Z,50.02
2023-02-17T11:27:34.023Z,48.69
2023-02-17T11:28:35.747Z,50.42
2023-02-17T11:29:37.907Z,50.10
2023-02-17T11:30:48.661Z,48.35
2023-02-17T11:32:00.796Z,49.00
2023-02-17T11:33:13.998Z,49.69
2023-02-17T11:34:22.711Z,50.04
2023-02-17T11:35:28.301Z,49.15
2023-02-17T11:36:30.988Z,48.42
2023-02-17T11:37:33.866Z,47.34
2023-02-17T11:38:38.519Z,46.90
2023-02-17T11:39:43.476Z,46.87
2023-02-17T11:40:57.953Z,47.17
2023-02-17T11:41:59.568Z,46.68
2023-02-17T11:43:02.812Z,46.65
2023-02-17T11:44:04.443Z,47.75
2023-02-17T11:45:22.207Z,47.71
2023-02-17T11:46:55.533Z,48.36
2023-02-17T11:48:33.745Z,46.21
2023-02-17T11:49:35.300Z,45.91
2023-02-17T11:50:45.810Z,45.08
2023-02-17T11:51:47.298Z,45.43
2023-02-17T11:53:26.349Z,45.59
2023-02-17T11:55:06.591Z,44.84
2023-02-17T11:56:08.489Z,45.81
2023-02-17T11:57:40.731Z,44.87
2023-02-17T11:59:20.406Z,45.30
2023-02-17T12:00:42.905Z,45.25
2023-02-17T12:02:06.962Z,45.71
2023-02-17T12:03:42.475Z,45.56
2023-02-17T12:04:50.152Z,45.73
2023-02-17T12:06:04.562Z,46.51
2023-02-17T12:07:06.640Z,46.02
2023-02-17T12:08:11.149Z,45.27
2023-02-17T12:09:27.422Z,44.73
2023-02-17T12:10:41.697Z,45.12
2023-02-17T12:12:01.889Z,45.93
2023-02-17T12:13:12.059Z,45.35
2023-02-17T12:14:41.696Z,45.03
2023-02-17T12:15:49.004Z,45.56
2023-02-17T12:16:57.872Z,45.71
2023-02-17T12:18:08.152Z,43.70
2023-02-17T12:19:40.302Z,43.32
2023-02-17T12:21:04.781Z,44.80
2023-02-17T12:22:15.274Z,44.77
2023-02-17T12:23:19.599Z,45.72
2023-02-17T12:24:24.210Z,44.99
2023-02-17T12:25:28.967Z,44.33
2023-02-17T12:26:45.005Z,43.90
2023-02-17T12:28:12.428Z,44.57
2023-02-17T12:29:28.939Z,44.95
2023-02-17T12:31:02.722Z,43.93
2023-02-17T12:32:20.773Z,44.88
2023-02-17T12:33:32.375Z,44.63
2023-02-17T12:34:42.039Z,44.36
2023-02-17T12:35:55.893Z,43.01
2023-02-17T12:36:59.289Z,42.46
2023-02-17T12:38:11.256Z,43.95
2023-02-17T12:39:24.726Z,43.14
2023-02-17T12:40:29.206Z,42.75
2023-02-17T12:41:36.814Z,42.55
2023-02-17T12:42:49.386Z,42.62
2023-02-17T12:43:55.037Z,41.88
2023-02-17T12:45:05.668Z,43.06
2023-02-17T12:46:11.937Z,42.58
2023-02-17T12:47:18.833Z,43.14
2023-02-17T12:48:41.580Z,43.10
2023-02-17T12:49:59.335Z,41.97
2023-02-17T12:51:12.482Z,41.55
2023-02-17T12:52:19.856Z,42.11
2023-02-17T12:53:34.293Z,41.62
2023-02-17T12:54:42.268Z,43.17
2023-02-17T12:55:50.269Z,42.44
2023-02-17T12:57:10.071Z,42.87
2023-02-17T12:58:25.494Z,41.75
2023-02-17T12:59:33.333Z,42.37
2023-02-17T13:00:48.696Z,42.69
2023-02-17T13:01:59.086Z,42.60
2023-02-17T13:03:03.014Z,40.49
2023-02-17T13:04:05.154Z,41.86
2023-02-17T13:05:20.917Z,41.34
2023-02-17T13:06:32.682Z,40.78
2023-02-17T13:07:59.216Z,41.95
2023-02-17T13:09:15.436Z,42.50
2023-02-17T13:10:31.786Z,42.20
2023-02-17T13:11:35.640Z,41.76
2023-02-17T13:12:40.856Z,41.80
2023-02-17T13:13:42.437Z,41.96
2023-02-17T13:14:47.219Z,40.92
2023-02-17T13:15:48.966Z,40.22
2023-02-17T13:16:50.646Z,41.06
2023-02-17T13:18:03.075Z,40.09
2023-02-17T13:19:08.556Z,40.33
2023-02-17T13:20:10.041Z,40.32
2023-02-17T13:21:31.786Z,40.70
2023-02-17T13:22:34.019Z,40.62
2023-02-17T13:23:39.507Z,39.92
2023-02-17T13:24:53.070Z,39.69
2023-02-17T13:26:28.375Z,39.40
2023-02-17T13:27:32.747Z,39.43
2023-02-17T13:28:38.107Z,39.77
2023-02-17T13:29:39.802Z,40.08
2023-02-17T13:30:45.178Z,40.13
2023-02-17T13:31:49.229Z,41.21
2023-02-17T13:33:25.907Z,40.32
2023-02-17T13:34:35.525Z,39.85
2023-02-17T13:35:37.270Z,39.86
2023-02-17T13:36:38.799Z,39.82
2023-02-17T13:37:44.943Z,39.36
2023-02-17T13:39:01.402Z,39.43
2023-02-17T13:40:24.062Z,39.58
2023-02-17T13:41:26.215Z,39.89
2023-02-17T13:42:44.198Z,40.37
2023-02-17T13:43:46.133Z,40.63
2023-02-17T13:44:49.104Z,40.65
2023-02-17T13:45:59.967Z,39.42
2023-02-17T13:47:07.671Z,38.85
2023-02-17T13:48:15.164Z,38.92
2023-02-17T13:49:23.683Z,38.86
2023-02-17T13:50:37.180Z,38.50
2023-02-17T13:51:38.752Z,38.65
2023-02-17T13:52:43.515Z,38.86
2023-02-17T13:53:50.298Z,39.21
2023-02-17T13:54:54.116Z,38.77
2023-02-17T13:56:08.956Z,38.76
2023-02-17T13:57:23.189Z,38.81
2023-02-17T13:58:37.133Z,39.38
2023-02-17T13:59:38.949Z,38.79
2023-02-17T14:00:43.617Z,38.20
2023-02-17T14:01:46.542Z,38.09
2023-02-17T14:02:54.539Z,37.70
2023-02-17T14:03:56.410Z,37.71
2023-02-17T14:05:00.656Z,37.67
2023-02-17T14:06:03.209Z,37.23
2023-02-17T14:07:05.210Z,37.83
2023-02-17T14:08:14.128Z,38.25
2023-02-17T14:09:31.046Z,37.61
2023-02-17T14:10:33.188Z,36.98
2023-02-17T14:11:36.052Z,37.58
2023-02-17T14:12:37.745Z,37.39
2023-02-17T14:13:42.915Z,37.77
2023-02-17T14:14:44.596Z,38.30
2023-02-17T14:15:54.482Z,37.53
2023-02-17T14:17:03.241Z,37.98